Kirishima Maru No.5 — JD2506 — position and weather

sailwx.info

Track history (hours):
 
Tides and Currents Weather Stations Pressure Air Temp Water Temp Dewpoint Dewpoint Depression Visibility Wind Speed Wind Dir Waves Ship Positions

Kirishima Maru No.5

Last reported at 2015-Apr-18 00:33 UTC. Time now 2015-Apr-18 13:12 UTC.
Position N 34°57' E 140°12'.

Length 105 m; draft 6.5 m.

Type: Tanker. MMSI: 431000338.

Date/timePositionNaut miles runAvg speedWind from/ knotsBaromVisibWave heightAir tempDewpointWater temp
2015-Apr-18 00:33N 34°57' E 140°12'2813.1
2015-Apr-17 22:23N 35°17' E 140°37'1313.3
2015-Apr-17 21:25N 35°27' E 140°46'1213.6
2015-Apr-17 20:33N 35°36' E 140°55'1313.1
2015-Apr-17 19:33N 35°49' E 140°58'1414.1
2015-Apr-17 18:34N 36°03' E 140°60'  
2015-Apr-14 20:17N 35°44' E 140°59'1314.2
2015-Apr-14 19:24N 35°33' E 140°51'1715.1
2015-Apr-14 18:15N 35°19' E 140°38'1115.1
2015-Apr-14 17:33N 35°11' E 140°30'1514.5
2015-Apr-14 16:31N 35°00' E 140°17'1414.4
2015-Apr-14 15:33N 34°53' E 140°03'1414.1
2015-Apr-14 14:33N 34°47' E 139°47'24212.0
2015-Apr-13 18:20N 34°01' E 134°59'1114.5
2015-Apr-13 17:33N 34°12' E 134°59'1413.7
2015-Apr-13 16:33N 34°26' E 135°01'1111.3
2015-Apr-13 15:32N 34°37' E 134°59'  
2015-Apr-11 10:32N 34°38' E 134°59'9 9.5
2015-Apr-11 09:33N 34°29' E 135°04'1413.2
2015-Apr-11 08:31N 34°16' E 134°59'1212.8
2015-Apr-11 07:33N 34°04' E 134°59'23411.7
2015-Apr-10 11:31N 35°00' E 139°34'1414.5
2015-Apr-10 10:33N 35°10' E 139°45'1312.7
2015-Apr-10 09:34N 35°23' E 139°42'9 8.8
2015-Apr-10 08:33N 35°31' E 139°46'0 0.0
2015-Apr-10 07:26N 35°31' E 139°46'0 0.0
2015-Apr-10 06:32N 35°31' E 139°46'0 0.0
2015-Apr-10 05:23N 35°31' E 139°46'0 0.0
2015-Apr-10 04:29N 35°31' E 139°46'1 0.9
2015-Apr-10 03:34N 35°30' E 139°45'8 8.3
2015-Apr-10 02:33N 35°22' E 139°45'1212.0
2015-Apr-10 01:34N 35°10' E 139°47'1413.5
2015-Apr-10 00:33N 34°57' E 139°44'1211.8
2015-Apr-09 23:33N 34°52' E 139°57'1414.2
2015-Apr-09 22:33N 34°59' E 140°12'1514.2
2015-Apr-09 21:29N 35°08' E 140°27'1414.0
2015-Apr-09 20:28N 35°19' E 140°38'1313.7
2015-Apr-09 19:31N 35°29' E 140°48'1613.9
2015-Apr-09 18:22N 35°43' E 140°58'9 0.2
2015-Apr-08 01:06N 35°37' E 140°49'  
Track history (hours):
 
Tides and Currents Weather Stations Pressure Air Temp Water Temp Dewpoint Dewpoint Depression Visibility Wind Speed Wind Dir Waves Ship Positions

Kirishima Maru No.5

Last reported at 2015-Apr-18 00:33 UTC. Time now 2015-Apr-18 13:12 UTC.
Position N 34°57' E 140°12'.

Length 105 m; draft 6.5 m.

Type: Tanker. MMSI: 431000338.

Date/timePositionNaut miles runAvg speedWind from/ knotsBaromVisibWave heightAir tempDewpointWater temp
2015-Apr-18 00:33N 34°57' E 140°12'2813.1
2015-Apr-17 22:23N 35°17' E 140°37'1313.3
2015-Apr-17 21:25N 35°27' E 140°46'1213.6
2015-Apr-17 20:33N 35°36' E 140°55'1313.1
2015-Apr-17 19:33N 35°49' E 140°58'1414.1
2015-Apr-17 18:34N 36°03' E 140°60'  
2015-Apr-14 20:17N 35°44' E 140°59'1314.2
2015-Apr-14 19:24N 35°33' E 140°51'1715.1
2015-Apr-14 18:15N 35°19' E 140°38'1115.1
2015-Apr-14 17:33N 35°11' E 140°30'1514.5
2015-Apr-14 16:31N 35°00' E 140°17'1414.4
2015-Apr-14 15:33N 34°53' E 140°03'1414.1
2015-Apr-14 14:33N 34°47' E 139°47'24212.0
2015-Apr-13 18:20N 34°01' E 134°59'1114.5
2015-Apr-13 17:33N 34°12' E 134°59'1413.7
2015-Apr-13 16:33N 34°26' E 135°01'1111.3
2015-Apr-13 15:32N 34°37' E 134°59'  
2015-Apr-11 10:32N 34°38' E 134°59'9 9.5
2015-Apr-11 09:33N 34°29' E 135°04'1413.2
2015-Apr-11 08:31N 34°16' E 134°59'1212.8
2015-Apr-11 07:33N 34°04' E 134°59'23411.7
2015-Apr-10 11:31N 35°00' E 139°34'1414.5
2015-Apr-10 10:33N 35°10' E 139°45'1312.7
2015-Apr-10 09:34N 35°23' E 139°42'9 8.8
2015-Apr-10 08:33N 35°31' E 139°46'0 0.0
2015-Apr-10 07:26N 35°31' E 139°46'0 0.0
2015-Apr-10 06:32N 35°31' E 139°46'0 0.0
2015-Apr-10 05:23N 35°31' E 139°46'0 0.0
2015-Apr-10 04:29N 35°31' E 139°46'1 0.9
2015-Apr-10 03:34N 35°30' E 139°45'8 8.3
2015-Apr-10 02:33N 35°22' E 139°45'1212.0
2015-Apr-10 01:34N 35°10' E 139°47'1413.5
2015-Apr-10 00:33N 34°57' E 139°44'1211.8
2015-Apr-09 23:33N 34°52' E 139°57'1414.2
2015-Apr-09 22:33N 34°59' E 140°12'1514.2
2015-Apr-09 21:29N 35°08' E 140°27'1414.0
2015-Apr-09 20:28N 35°19' E 140°38'1313.7
2015-Apr-09 19:31N 35°29' E 140°48'1613.9
2015-Apr-09 18:22N 35°43' E 140°58'9 0.2
2015-Apr-08 01:06N 35°37' E 140°49'  

Dump ship's entire track history